createdAt,value
2023-04-06T00:00:10.129Z,72.34
2023-04-06T00:02:37.503Z,72.25
2023-04-06T00:05:04.549Z,72.63
2023-04-06T00:07:31.034Z,72.12
2023-04-06T00:09:57.555Z,72.38
2023-04-06T00:12:23.997Z,71.90
2023-04-06T00:14:51.104Z,72.21
2023-04-06T00:17:17.623Z,72.84
2023-04-06T00:19:44.208Z,72.79
2023-04-06T00:22:10.907Z,72.48
2023-04-06T00:24:37.573Z,72.57
2023-04-06T00:27:03.971Z,72.40
2023-04-06T00:29:30.591Z,72.62
2023-04-06T00:31:57.041Z,73.09
2023-04-06T00:34:23.643Z,72.29
2023-04-06T00:36:50.338Z,72.88
2023-04-06T00:39:19.005Z,72.63
2023-04-06T00:41:50.865Z,72.96
2023-04-06T00:44:17.896Z,73.14
2023-04-06T00:46:44.463Z,72.41
2023-04-06T00:49:12.018Z,72.83
2023-04-06T00:51:38.675Z,72.89
2023-04-06T00:54:06.055Z,73.17
2023-04-06T00:56:34.660Z,72.76
2023-04-06T00:59:01.785Z,72.78
2023-04-06T01:01:29.535Z,72.97
2023-04-06T01:04:00.068Z,72.99
2023-04-06T01:06:26.714Z,73.08
2023-04-06T01:08:59.020Z,73.21
2023-04-06T01:11:27.205Z,72.92
2023-04-06T01:13:54.466Z,73.73
2023-04-06T01:16:26.608Z,73.33
2023-04-06T01:19:12.660Z,73.58
2023-04-06T01:21:43.206Z,73.40
2023-04-06T01:24:25.227Z,73.47
2023-04-06T01:27:01.834Z,73.63
2023-04-06T01:29:36.535Z,73.42
2023-04-06T01:32:05.682Z,73.02
2023-04-06T01:34:36.889Z,73.72
2023-04-06T01:37:05.473Z,73.38
2023-04-06T01:39:31.971Z,74.06
2023-04-06T01:42:01.329Z,73.94
2023-04-06T01:44:31.131Z,73.37
2023-04-06T01:47:06.720Z,74.40
2023-04-06T01:49:33.524Z,74.36
2023-04-06T01:52:00.613Z,73.74
2023-04-06T01:54:27.304Z,74.24
2023-04-06T01:57:04.278Z,74.79
2023-04-06T01:59:51.220Z,74.64
2023-04-06T02:02:29.670Z,74.74
2023-04-06T02:05:02.704Z,74.73
2023-04-06T02:07:29.628Z,75.24
2023-04-06T02:09:57.213Z,75.27
2023-04-06T02:12:32.516Z,74.88
2023-04-06T02:14:59.766Z,74.72
2023-04-06T02:17:26.405Z,75.41
2023-04-06T02:19:53.022Z,75.65
2023-04-06T02:22:19.490Z,75.35
2023-04-06T02:24:46.466Z,75.36
2023-04-06T02:27:13.478Z,75.95
2023-04-06T02:29:40.006Z,75.85
2023-04-06T02:32:06.824Z,75.74
2023-04-06T02:34:33.343Z,75.30
2023-04-06T02:37:00.327Z,75.15
2023-04-06T02:39:26.756Z,75.49
2023-04-06T02:41:53.504Z,75.43
2023-04-06T02:44:24.225Z,75.68
2023-04-06T02:46:51.762Z,75.92
2023-04-06T02:49:18.219Z,75.68
2023-04-06T02:51:45.382Z,76.49
2023-04-06T02:54:19.469Z,76.04
2023-04-06T02:56:46.172Z,76.14
2023-04-06T02:59:13.151Z,75.95
2023-04-06T03:01:44.522Z,76.54
2023-04-06T03:04:11.807Z,76.46
2023-04-06T03:06:39.430Z,77.18
2023-04-06T03:09:16.590Z,77.43
2023-04-06T03:11:44.470Z,77.90
2023-04-06T03:14:11.133Z,77.47
2023-04-06T03:16:37.825Z,77.85
2023-04-06T03:19:04.698Z,78.42
2023-04-06T03:21:34.568Z,78.14
2023-04-06T03:24:01.415Z,78.40
2023-04-06T03:26:27.998Z,79.51
2023-04-06T03:28:54.831Z,78.69
2023-04-06T03:31:27.760Z,78.62
2023-04-06T03:34:00.301Z,78.12
2023-04-06T03:36:31.815Z,78.65
2023-04-06T03:38:58.939Z,78.13
2023-04-06T03:41:25.565Z,78.82
2023-04-06T03:43:58.900Z,78.56
2023-04-06T03:46:25.597Z,79.09
2023-04-06T03:48:54.584Z,79.24
2023-04-06T03:51:23.675Z,78.42
2023-04-06T03:53:50.211Z,78.34
2023-04-06T03:56:16.826Z,78.08
2023-04-06T03:58:45.471Z,78.06
2023-04-06T04:01:12.244Z,77.21
2023-04-06T04:03:38.681Z,77.01
2023-04-06T04:06:05.486Z,77.26
2023-04-06T04:08:32.219Z,77.62
2023-04-06T04:10:58.885Z,77.19
2023-04-06T04:13:25.442Z,76.96
2023-04-06T04:15:52.293Z,76.83
2023-04-06T04:18:18.781Z,77.28
2023-04-06T04:20:45.878Z,76.84
2023-04-06T04:23:13.308Z,77.60
2023-04-06T04:25:39.741Z,77.29
2023-04-06T04:28:06.864Z,76.91
2023-04-06T04:30:33.378Z,77.67
2023-04-06T04:33:00.013Z,77.44
2023-04-06T04:35:27.821Z,76.86
2023-04-06T04:37:54.307Z,76.47
2023-04-06T04:40:21.451Z,76.67
2023-04-06T04:42:53.072Z,76.71
2023-04-06T04:45:31.225Z,76.41
2023-04-06T04:48:01.697Z,77.18
2023-04-06T04:50:36.439Z,77.29
2023-04-06T04:53:02.937Z,76.80
2023-04-06T04:55:30.330Z,77.18
2023-04-06T04:57:59.182Z,77.13
2023-04-06T05:00:44.356Z,77.18
2023-04-06T05:03:18.215Z,76.88
2023-04-06T05:05:46.298Z,77.43
2023-04-06T05:08:14.852Z,77.21
2023-04-06T05:10:47.643Z,77.38
2023-04-06T05:13:14.116Z,76.75
2023-04-06T05:15:41.262Z,76.63
2023-04-06T05:18:24.416Z,77.05
2023-04-06T05:20:52.640Z,76.41
2023-04-06T05:23:23.303Z,76.62
2023-04-06T05:25:52.035Z,76.57
2023-04-06T05:28:21.907Z,76.39
2023-04-06T05:30:48.459Z,76.68
2023-04-06T05:33:16.130Z,76.33
2023-04-06T05:35:57.680Z,76.89
2023-04-06T05:38:24.496Z,76.67
2023-04-06T05:40:53.723Z,76.63
2023-04-06T05:43:23.905Z,76.67
2023-04-06T05:45:54.405Z,76.93
2023-04-06T05:48:21.226Z,76.75
2023-04-06T05:50:51.621Z,77.16
2023-04-06T05:53:22.158Z,77.04
2023-04-06T05:55:54.335Z,77.19
2023-04-06T05:58:21.689Z,77.38
2023-04-06T06:00:51.063Z,77.56
2023-04-06T06:03:20.456Z,77.70
2023-04-06T06:05:51.799Z,77.61
2023-04-06T06:08:25.274Z,76.93
2023-04-06T06:10:52.668Z,77.58
2023-04-06T06:13:23.081Z,76.83
2023-04-06T06:15:50.748Z,75.92
2023-04-06T06:18:19.618Z,74.80
2023-04-06T06:20:48.123Z,71.95
2023-04-06T06:23:15.573Z,71.40
2023-04-06T06:25:42.026Z,71.80
2023-04-06T06:28:09.302Z,71.39
2023-04-06T06:30:36.313Z,67.96
2023-04-06T06:33:02.923Z,66.70
2023-04-06T06:35:30.399Z,64.67
2023-04-06T06:37:58.391Z,61.21
2023-04-06T06:40:27.992Z,62.66
2023-04-06T06:42:55.354Z,63.55
2023-04-06T06:45:30.743Z,65.45
2023-04-06T06:47:57.587Z,64.07
2023-04-06T06:50:24.273Z,62.68
2023-04-06T06:52:50.810Z,61.13
2023-04-06T06:55:19.853Z,62.87
2023-04-06T06:57:49.225Z,59.33
2023-04-06T07:00:16.427Z,58.67
2023-04-06T07:02:44.743Z,60.32
2023-04-06T07:05:26.248Z,57.74
2023-04-06T07:07:54.688Z,56.05
2023-04-06T07:10:21.403Z,54.91
2023-04-06T07:12:47.828Z,53.30
2023-04-06T07:15:14.527Z,54.66
2023-04-06T07:17:46.099Z,54.31
2023-04-06T07:20:13.458Z,53.67
2023-04-06T07:22:40.632Z,53.36
2023-04-06T07:25:08.216Z,53.58
2023-04-06T07:27:34.916Z,52.55
2023-04-06T07:30:01.804Z,52.91
2023-04-06T07:32:28.308Z,52.08
2023-04-06T07:34:55.336Z,49.01
2023-04-06T07:37:22.697Z,48.80
2023-04-06T07:39:50.243Z,48.30
2023-04-06T07:42:16.716Z,48.38
2023-04-06T07:44:44.137Z,48.76
2023-04-06T07:47:11.615Z,47.81
2023-04-06T07:49:38.136Z,49.24
2023-04-06T07:52:05.357Z,47.93
2023-04-06T07:54:32.980Z,47.44
2023-04-06T07:56:59.618Z,47.63
2023-04-06T07:59:26.159Z,47.77
2023-04-06T08:01:52.615Z,48.40
2023-04-06T08:04:19.266Z,46.69
2023-04-06T08:06:45.922Z,45.79
2023-04-06T08:09:12.373Z,47.50
2023-04-06T08:11:38.859Z,46.40
2023-04-06T08:14:05.342Z,45.96
2023-04-06T08:16:31.738Z,48.77
2023-04-06T08:18:58.240Z,45.64
2023-04-06T08:21:24.645Z,45.94
2023-04-06T08:23:51.302Z,45.00
2023-04-06T08:26:17.709Z,44.60
2023-04-06T08:28:46.853Z,45.20
2023-04-06T08:31:13.474Z,43.65
2023-04-06T08:33:40.150Z,43.27
2023-04-06T08:36:13.905Z,42.66
2023-04-06T08:38:42.240Z,42.53
2023-04-06T08:41:12.581Z,42.87
2023-04-06T08:43:48.486Z,42.35
2023-04-06T08:46:15.876Z,42.13
2023-04-06T08:48:43.858Z,41.81
2023-04-06T08:51:11.534Z,41.25
2023-04-06T08:53:39.231Z,41.96
2023-04-06T08:56:06.236Z,40.95
2023-04-06T08:58:38.798Z,40.78
2023-04-06T09:01:12.934Z,39.86
2023-04-06T09:03:41.564Z,41.24
2023-04-06T09:06:09.163Z,40.40
2023-04-06T09:08:37.206Z,40.46
2023-04-06T09:11:03.967Z,40.82
2023-04-06T09:13:30.966Z,40.28
2023-04-06T09:16:03.326Z,40.53
2023-04-06T09:18:33.943Z,41.71
2023-04-06T09:21:02.575Z,39.72
2023-04-06T09:23:29.287Z,39.93
2023-04-06T09:26:16.989Z,40.30
2023-04-06T09:28:48.086Z,40.98
2023-04-06T09:31:16.883Z,39.43
2023-04-06T09:33:46.225Z,40.75
2023-04-06T09:36:13.095Z,41.10
2023-04-06T09:38:55.754Z,40.10
2023-04-06T09:41:37.279Z,39.46
2023-04-06T09:44:07.849Z,41.13
2023-04-06T09:46:50.483Z,40.03
2023-04-06T09:49:23.763Z,39.49
2023-04-06T09:51:58.845Z,37.21
2023-04-06T09:54:29.612Z,37.07
2023-04-06T09:57:03.011Z,38.03
2023-04-06T09:59:48.336Z,37.58
2023-04-06T10:02:33.100Z,37.00
2023-04-06T10:05:22.091Z,37.06
2023-04-06T10:08:00.246Z,36.27
2023-04-06T10:10:29.208Z,37.44
2023-04-06T10:12:56.689Z,36.59
2023-04-06T10:15:23.353Z,36.90
2023-04-06T10:17:49.991Z,36.54
2023-04-06T10:20:30.198Z,36.43
2023-04-06T10:23:06.116Z,35.84
2023-04-06T10:25:36.035Z,35.88
2023-04-06T10:28:10.322Z,35.31
2023-04-06T10:30:43.631Z,36.61
2023-04-06T10:33:21.174Z,35.75
2023-04-06T10:35:47.846Z,34.74
2023-04-06T10:38:15.258Z,35.59
2023-04-06T10:40:48.733Z,34.51
2023-04-06T10:43:20.705Z,33.18
2023-04-06T10:45:56.898Z,35.42
2023-04-06T10:48:24.824Z,33.72
2023-04-06T10:50:53.697Z,33.35
2023-04-06T10:53:23.695Z,31.82
2023-04-06T10:55:56.700Z,32.43
2023-04-06T10:58:27.369Z,32.22
2023-04-06T11:00:55.330Z,32.17
2023-04-06T11:03:21.756Z,30.93
2023-04-06T11:05:50.694Z,30.94
2023-04-06T11:08:34.037Z,31.15
2023-04-06T11:11:07.573Z,30.93
2023-04-06T11:13:44.765Z,32.29
2023-04-06T11:16:25.430Z,32.05
2023-04-06T11:18:55.059Z,30.04
2023-04-06T11:21:44.142Z,31.10
2023-04-06T11:24:12.931Z,30.14
2023-04-06T11:26:49.686Z,29.58
2023-04-06T11:29:18.053Z,29.60
2023-04-06T11:31:49.657Z,29.10
2023-04-06T11:34:21.037Z,30.07
2023-04-06T11:36:49.768Z,29.65
2023-04-06T11:39:21.453Z,29.93
2023-04-06T11:41:56.572Z,29.11
2023-04-06T11:44:40.974Z,28.94
2023-04-06T11:47:09.613Z,28.91
2023-04-06T11:49:41.133Z,28.27
2023-04-06T11:52:26.541Z,28.56
2023-04-06T11:54:54.320Z,28.13
2023-04-06T11:57:23.954Z,28.86
2023-04-06T11:59:50.900Z,29.08
2023-04-06T12:02:18.595Z,27.89
2023-04-06T12:04:45.765Z,28.87
2023-04-06T12:07:12.191Z,28.47
2023-04-06T12:09:39.701Z,26.36
2023-04-06T12:12:06.179Z,26.47
2023-04-06T12:14:32.740Z,26.25
2023-04-06T12:16:59.521Z,25.79
2023-04-06T12:19:26.883Z,25.55
2023-04-06T12:21:55.330Z,27.08
2023-04-06T12:24:22.092Z,25.94
2023-04-06T12:26:51.587Z,25.45
2023-04-06T12:29:20.849Z,25.76
2023-04-06T12:31:47.392Z,25.99
2023-04-06T12:34:13.926Z,24.91
2023-04-06T12:36:40.536Z,25.16
2023-04-06T12:39:07.344Z,25.97
2023-04-06T12:41:33.822Z,25.41
2023-04-06T12:44:03.294Z,24.33
2023-04-06T12:46:33.704Z,24.67
2023-04-06T12:49:00.428Z,24.53
2023-04-06T12:51:30.655Z,25.04
2023-04-06T12:53:57.138Z,24.29
2023-04-06T12:56:23.990Z,24.08
2023-04-06T12:58:52.487Z,24.63
2023-04-06T13:01:19.214Z,23.75
2023-04-06T13:03:46.065Z,24.17
2023-04-06T13:06:12.674Z,24.48
2023-04-06T13:08:40.501Z,24.94
2023-04-06T13:11:10.585Z,25.73
2023-04-06T13:13:38.174Z,25.89
2023-04-06T13:16:07.615Z,23.93
2023-04-06T13:18:35.601Z,22.90
2023-04-06T13:21:02.392Z,22.77
2023-04-06T13:23:29.016Z,23.46
2023-04-06T13:26:04.142Z,23.08
2023-04-06T13:28:31.279Z,23.78
2023-04-06T13:31:02.940Z,24.33
2023-04-06T13:33:30.966Z,23.38
2023-04-06T13:35:58.538Z,23.56
2023-04-06T13:38:25.288Z,23.18
2023-04-06T13:40:52.046Z,23.57
2023-04-06T13:43:21.747Z,24.50
2023-04-06T13:45:52.288Z,24.14
2023-04-06T13:48:19.473Z,24.19
2023-04-06T13:50:46.758Z,23.38
2023-04-06T13:53:13.625Z,23.42
2023-04-06T13:55:40.150Z,23.97
2023-04-06T13:58:06.674Z,23.62
2023-04-06T14:00:33.137Z,23.59
2023-04-06T14:02:59.712Z,23.33
2023-04-06T14:05:27.590Z,22.98
2023-04-06T14:07:55.094Z,23.48
2023-04-06T14:10:23.852Z,24.48
2023-04-06T14:12:50.481Z,26.17
2023-04-06T14:15:17.348Z,22.58
2023-04-06T14:17:43.793Z,22.11
2023-04-06T14:20:14.960Z,22.70
2023-04-06T14:22:43.758Z,21.90
2023-04-06T14:25:11.976Z,22.77
2023-04-06T14:27:38.373Z,22.01
2023-04-06T14:30:05.269Z,22.09
2023-04-06T14:32:31.752Z,23.04
2023-04-06T14:34:58.209Z,22.57
2023-04-06T14:37:24.641Z,22.36
2023-04-06T14:39:51.132Z,25.43
2023-04-06T14:42:17.548Z,21.58
2023-04-06T14:44:46.139Z,21.92
2023-04-06T14:47:15.267Z,22.52
2023-04-06T14:49:42.213Z,23.26
2023-04-06T14:52:08.608Z,22.00
2023-04-06T14:54:35.289Z,23.47
2023-04-06T14:57:01.744Z,23.89
2023-04-06T15:02:04.045Z,23.83
2023-04-06T15:04:31.233Z,21.48
2023-04-06T15:06:57.856Z,21.18
2023-04-06T15:09:24.337Z,21.38
2023-04-06T15:11:50.753Z,21.50
2023-04-06T15:14:17.289Z,22.35
2023-04-06T15:16:43.715Z,22.86
2023-04-06T15:19:11.886Z,21.98
2023-04-06T15:21:38.364Z,23.21
2023-04-06T15:24:07.216Z,21.98
2023-04-06T15:26:33.633Z,22.18
2023-04-06T15:29:01.891Z,22.28
2023-04-06T15:31:37.473Z,22.03
2023-04-06T15:34:06.564Z,21.84
2023-04-06T15:36:33.053Z,22.23
2023-04-06T15:38:59.928Z,22.89
2023-04-06T15:41:27.148Z,22.54
2023-04-06T15:43:54.446Z,22.55
2023-04-06T15:46:21.548Z,22.18
2023-04-06T15:48:48.691Z,22.49
2023-04-06T15:51:16.535Z,22.90
2023-04-06T15:53:43.303Z,23.38
2023-04-06T15:56:09.766Z,23.36
2023-04-06T15:58:37.132Z,23.81
2023-04-06T16:01:17.562Z,23.97
2023-04-06T16:03:45.309Z,23.38
2023-04-06T16:06:12.218Z,24.00
2023-04-06T16:08:40.428Z,23.67
2023-04-06T16:11:07.130Z,22.96
2023-04-06T16:13:33.939Z,23.92
2023-04-06T16:16:01.067Z,24.04
2023-04-06T16:18:27.745Z,24.87
2023-04-06T16:20:54.265Z,25.09
2023-04-06T16:23:21.124Z,26.06
2023-04-06T16:25:47.537Z,25.67
2023-04-06T16:28:14.153Z,24.89
2023-04-06T16:30:42.460Z,25.88
2023-04-06T16:33:11.874Z,25.17
2023-04-06T16:35:45.632Z,25.95
2023-04-06T16:38:13.511Z,26.83
2023-04-06T16:40:40.010Z,26.71
2023-04-06T16:43:06.702Z,27.97
2023-04-06T16:45:33.117Z,28.59
2023-04-06T16:47:59.837Z,28.18
2023-04-06T16:50:26.931Z,28.94
2023-04-06T16:52:53.439Z,28.14
2023-04-06T16:55:20.252Z,29.02
2023-04-06T16:57:49.252Z,29.56
2023-04-06T17:00:16.607Z,29.40
2023-04-06T17:02:47.020Z,30.46
2023-04-06T17:05:13.827Z,29.99
2023-04-06T17:07:40.519Z,29.55
2023-04-06T17:10:07.338Z,30.01
2023-04-06T17:12:33.975Z,30.40
2023-04-06T17:15:00.383Z,30.19
2023-04-06T17:17:27.090Z,30.54
2023-04-06T17:19:53.529Z,31.39
2023-04-06T17:22:21.208Z,31.39
2023-04-06T17:24:48.883Z,31.48
2023-04-06T17:27:16.270Z,31.90
2023-04-06T17:29:43.069Z,31.57
2023-04-06T17:32:11.064Z,31.93
2023-04-06T17:34:37.740Z,32.70
2023-04-06T17:37:04.348Z,33.19
2023-04-06T17:39:30.953Z,32.30
2023-04-06T17:41:57.955Z,33.01
2023-04-06T17:44:24.362Z,33.74
2023-04-06T17:46:51.042Z,34.58
2023-04-06T17:49:17.482Z,35.03
2023-04-06T17:51:45.043Z,35.37
2023-04-06T17:54:11.563Z,35.69
2023-04-06T17:56:38.154Z,35.56
2023-04-06T17:59:07.832Z,35.13
2023-04-06T18:01:35.151Z,36.18
2023-04-06T18:04:01.753Z,36.24
2023-04-06T18:06:28.316Z,36.30
2023-04-06T18:08:54.750Z,36.26
2023-04-06T18:11:25.582Z,37.12
2023-04-06T18:13:52.419Z,36.78
2023-04-06T18:16:22.189Z,36.74
2023-04-06T18:18:48.938Z,37.10
2023-04-06T18:21:15.527Z,36.68
2023-04-06T18:23:42.145Z,37.15
2023-04-06T18:26:16.854Z,37.80
2023-04-06T18:28:43.513Z,37.10
2023-04-06T18:31:09.973Z,37.35
2023-04-06T18:33:36.503Z,37.75
2023-04-06T18:36:03.164Z,37.60
2023-04-06T18:38:30.059Z,38.55
2023-04-06T18:40:56.464Z,37.78
2023-04-06T18:43:23.075Z,37.64
2023-04-06T18:45:49.525Z,37.71
2023-04-06T18:48:16.293Z,37.17
2023-04-06T18:50:52.792Z,37.62
2023-04-06T18:53:19.367Z,37.81
2023-04-06T18:55:45.832Z,37.52
2023-04-06T18:58:12.473Z,38.50
2023-04-06T19:00:42.380Z,37.59
2023-04-06T19:03:09.113Z,37.85
2023-04-06T19:05:36.055Z,38.22
2023-04-06T19:08:02.896Z,38.43
2023-04-06T19:10:29.561Z,38.28
2023-04-06T19:12:57.912Z,38.74
2023-04-06T19:15:24.325Z,38.63
2023-04-06T19:17:51.001Z,39.05
2023-04-06T19:20:17.863Z,38.65
2023-04-06T19:22:49.361Z,39.27
2023-04-06T19:25:15.836Z,39.57
2023-04-06T19:27:43.063Z,39.13
2023-04-06T19:30:10.332Z,38.99
2023-04-06T19:32:38.527Z,39.03
2023-04-06T19:35:06.680Z,39.32
2023-04-06T19:37:34.493Z,39.39
2023-04-06T19:40:01.109Z,39.93
2023-04-06T19:42:27.874Z,39.91
2023-04-06T19:44:54.296Z,39.70
2023-04-06T19:47:21.420Z,39.90
2023-04-06T19:49:47.859Z,40.60
2023-04-06T19:52:15.555Z,40.46
2023-04-06T19:54:41.999Z,39.92
2023-04-06T19:57:08.548Z,40.38
2023-04-06T19:59:35.211Z,40.69
2023-04-06T20:02:02.425Z,40.55
2023-04-06T20:04:29.051Z,40.96
2023-04-06T20:06:55.570Z,41.12
2023-04-06T20:09:22.754Z,40.49
2023-04-06T20:11:49.319Z,40.97
2023-04-06T20:14:17.755Z,41.56
2023-04-06T20:16:44.332Z,40.95
2023-04-06T20:19:10.843Z,41.11
2023-04-06T20:21:39.033Z,40.78
2023-04-06T20:24:06.137Z,41.21
2023-04-06T20:26:32.600Z,41.21
2023-04-06T20:28:58.996Z,41.29
2023-04-06T20:31:27.261Z,40.60
2023-04-06T20:33:53.915Z,41.41
2023-04-06T20:36:22.098Z,41.33
2023-04-06T20:38:48.812Z,41.40
2023-04-06T20:41:16.541Z,41.07
2023-04-06T20:43:43.078Z,41.31
2023-04-06T20:46:15.787Z,41.88
2023-04-06T20:48:42.317Z,41.59
2023-04-06T20:51:08.861Z,41.79
2023-04-06T20:53:35.380Z,41.35
2023-04-06T20:56:02.841Z,42.02
2023-04-06T20:58:29.322Z,42.23
2023-04-06T21:00:55.950Z,42.44
2023-04-06T21:03:22.428Z,42.44
2023-04-06T21:05:54.328Z,42.37
2023-04-06T21:08:21.189Z,42.33
2023-04-06T21:10:47.618Z,42.86
2023-04-06T21:13:14.022Z,42.87
2023-04-06T21:15:41.345Z,42.50
2023-04-06T21:18:08.198Z,42.07
2023-04-06T21:20:35.380Z,42.90
2023-04-06T21:23:01.829Z,42.18
2023-04-06T21:25:28.381Z,42.14
2023-04-06T21:27:54.780Z,42.28
2023-04-06T21:30:21.194Z,42.12
2023-04-06T21:32:47.622Z,42.58
2023-04-06T21:35:14.129Z,42.06
2023-04-06T21:37:40.575Z,41.95
2023-04-06T21:40:07.918Z,42.35
2023-04-06T21:42:34.325Z,42.03
2023-04-06T21:45:01.403Z,42.71
2023-04-06T21:47:27.785Z,42.41
2023-04-06T21:49:54.400Z,42.72
2023-04-06T21:52:20.845Z,43.08
2023-04-06T21:54:47.437Z,43.00
2023-04-06T21:57:13.949Z,42.87
2023-04-06T21:59:40.604Z,42.76
2023-04-06T22:02:07.102Z,42.72
2023-04-06T22:04:34.216Z,42.55
2023-04-06T22:07:00.860Z,42.32
2023-04-06T22:09:27.311Z,42.57
2023-04-06T22:11:53.784Z,42.45
2023-04-06T22:14:20.951Z,42.50
2023-04-06T22:16:47.886Z,42.40
2023-04-06T22:19:14.446Z,42.71
2023-04-06T22:21:41.131Z,42.96
2023-04-06T22:24:07.637Z,42.82
2023-04-06T22:26:34.197Z,43.17
2023-04-06T22:29:00.676Z,43.33
2023-04-06T22:31:27.196Z,43.13
2023-04-06T22:33:53.904Z,43.09
2023-04-06T22:36:20.611Z,43.47
2023-04-06T22:38:49.173Z,42.90
2023-04-06T22:41:15.858Z,43.88
2023-04-06T22:43:42.306Z,43.06
2023-04-06T22:46:08.904Z,42.60
2023-04-06T22:48:35.371Z,43.15
2023-04-06T22:51:01.991Z,42.63
2023-04-06T22:53:28.440Z,43.71
2023-04-06T22:55:55.189Z,43.78
2023-04-06T22:58:21.707Z,43.52
2023-04-06T23:00:48.317Z,43.47
2023-04-06T23:03:14.923Z,43.35
2023-04-06T23:05:41.608Z,43.23
2023-04-06T23:08:08.030Z,43.77
2023-04-06T23:10:34.648Z,44.05
2023-04-06T23:13:01.064Z,43.93
2023-04-06T23:15:27.629Z,44.07
2023-04-06T23:17:54.104Z,44.96
2023-04-06T23:20:20.764Z,44.46
2023-04-06T23:22:47.159Z,43.99
2023-04-06T23:25:13.743Z,43.92
2023-04-06T23:27:40.155Z,44.06
2023-04-06T23:30:07.413Z,44.71
2023-04-06T23:32:34.055Z,44.64
2023-04-06T23:35:00.819Z,45.29
2023-04-06T23:37:27.281Z,44.71
2023-04-06T23:39:53.897Z,44.82
2023-04-06T23:42:20.299Z,44.74
2023-04-06T23:44:47.356Z,45.49
2023-04-06T23:47:13.739Z,45.37
2023-04-06T23:49:40.463Z,45.79
2023-04-06T23:52:07.103Z,45.38
2023-04-06T23:54:33.531Z,45.00
2023-04-06T23:57:01.268Z,46.03
2023-04-06T23:59:27.811Z,45.15
